Аэропорт: Минск-1. Минск

ICAO: UMMM

METAR:
2018/05/18 14:00
UMMM 181400Z 03008G12MPS 9999 OVC033CB 20/11 Q1006 RMK QFE735
METAR:
2016/01/23 06:00
TAF UMMM 230500Z 2306/2315 33006MPS 6000 -SN BKN012 
      TEMPO 2306/2310 2000 SN BR BKN007